Time;durP1;ratioP1;P1;durP2;ratioP2;P2;SDS_P1;SDS_P2;PMS_P1;PMS_P2;Temp;Humidity;BMP_temperature;BMP_pressure;BME280_temperature;BME280_humidity;BME280_pressure;Samples;Min_cycle;Max_cycle;Signal;HPM_P1;HPM_P2
2022/06/20 00:00:27;;;;;;;0.80;0.60;;;;;;;17.87;54.90;101120.22;4953549;28;96738;-84
2022/06/20 00:02:54;;;;;;;2.10;1.00;;;;;;;17.91;55.10;101156.06;4950432;28;99778;-86
2022/06/20 00:05:28;;;;;;;1.90;0.80;;;;;;;17.92;55.62;101149.25;4938337;28;98097;-88
2022/06/20 00:07:54;;;;;;;1.00;0.70;;;;;;;17.87;55.18;101155.66;4948594;28;96881;-90
2022/06/20 00:10:22;;;;;;;0.90;0.73;;;;;;;17.86;55.27;101196.66;4948815;28;99063;-91
2022/06/20 00:12:49;;;;;;;1.87;0.80;;;;;;;17.90;55.42;101205.47;4952478;28;100638;-93
2022/06/20 00:15:33;;;;;;;3.63;1.20;;;;;;;17.93;56.01;101157.06;4959079;28;99090;-93
2022/06/20 00:18:00;;;;;;;2.23;1.00;;;;;;;17.89;55.47;101197.63;4939031;28;96826;-91
2022/06/20 00:20:26;;;;;;;2.33;0.93;;;;;;;17.92;55.42;101138.88;4973210;28;101700;-93
2022/06/20 00:22:52;;;;;;;1.30;1.13;;;;;;;17.85;55.28;101089.38;4954086;28;100657;-93
2022/06/20 00:25:19;;;;;;;1.83;0.97;;;;;;;17.73;55.61;101113.13;4961156;28;99186;-90
2022/06/20 00:27:45;;;;;;;2.90;0.80;;;;;;;17.66;55.57;101087.94;4938666;28;96762;-93
2022/06/20 00:30:13;;;;;;;1.07;0.77;;;;;;;17.64;55.56;100977.16;4964282;28;96812;-89
2022/06/20 00:32:39;;;;;;;1.80;0.70;;;;;;;17.54;55.95;100891.88;4948732;28;101159;-92
2022/06/20 00:35:05;;;;;;;2.47;0.93;;;;;;;17.52;56.15;100931.34;4962959;28;98395;-90
2022/06/20 00:37:31;;;;;;;2.97;1.20;;;;;;;17.51;56.04;101010.53;4961524;28;97044;-89
2022/06/20 00:39:57;;;;;;;0.90;0.70;;;;;;;17.54;56.20;101065.09;4939076;28;97116;-93
2022/06/20 00:42:23;;;;;;;0.80;0.70;;;;;;;17.61;56.06;101052.59;4950946;28;99134;-93
2022/06/20 00:44:57;;;;;;;2.83;0.80;;;;;;;17.63;56.36;101044.47;4956942;28;99008;-93
2022/06/20 00:47:31;;;;;;;2.57;0.80;;;;;;;17.63;56.33;101025.75;4957011;28;96196;-92
2022/06/20 00:50:07;;;;;;;1.73;0.80;;;;;;;17.66;56.50;101035.06;4959111;28;96346;-93
2022/06/20 00:52:50;;;;;;;2.10;0.80;;;;;;;17.63;57.06;101031.31;4958973;28;104440;-93
2022/06/20 00:55:23;;;;;;;1.10;1.00;;;;;;;17.61;56.46;101036.66;4953003;28;103911;-93
2022/06/20 00:57:57;;;;;;;1.70;0.77;;;;;;;17.63;56.51;101022.19;4956355;28;96664;-93
2022/06/20 01:00:26;;;;;;;1.37;0.70;;;;;;;17.62;56.18;101027.03;4963194;28;97802;-93
2022/06/20 01:02:56;;;;;;;2.70;1.10;;;;;;;17.57;56.12;101011.19;4958808;28;99514;-94
2022/06/20 01:05:31;;;;;;;1.13;0.73;;;;;;;17.60;56.31;101026.81;4960125;28;101904;-94
2022/06/20 01:08:02;;;;;;;1.17;1.07;;;;;;;17.58;56.54;101018.22;4963087;28;98148;-93
2022/06/20 01:10:32;;;;;;;1.00;0.67;;;;;;;17.56;56.11;101017.28;4957872;28;96418;-94
2022/06/20 01:13:06;;;;;;;2.43;1.03;;;;;;;17.51;56.47;101007.75;4961501;28;100189;-93
2022/06/20 01:15:40;;;;;;;2.00;0.90;;;;;;;17.49;56.67;101032.53;4956796;28;99625;-92
2022/06/20 01:18:15;;;;;;;2.93;0.97;;;;;;;17.39;56.37;101050.91;4949577;28;96631;-92
2022/06/20 01:20:43;;;;;;;1.13;1.10;;;;;;;17.36;56.02;101024.16;4953338;28;96431;-92
2022/06/20 01:23:40;;;;;;;1.23;0.80;;;;;;;17.31;56.95;101024.25;4955543;28;100643;-93
2022/06/20 01:26:17;;;;;;;2.67;1.37;;;;;;;17.22;56.66;101022.59;4939680;28;103139;-92
2022/06/20 01:28:46;;;;;;;1.73;1.03;;;;;;;17.19;56.33;101015.31;4957057;28;97080;-93
2022/06/20 01:31:14;;;;;;;3.07;1.20;;;;;;;17.20;56.53;101014.03;4953862;28;96010;-93
2022/06/20 01:33:40;;;;;;;1.57;0.90;;;;;;;17.21;56.43;101032.25;4955420;28;99490;-93
2022/06/20 01:38:50;;;;;;;2.80;0.90;;;;;;;17.16;56.42;101008.81;4961467;28;96609;-93
2022/06/20 01:44:04;;;;;;;1.77;0.90;;;;;;;17.08;56.48;100991.22;4953651;28;96629;-92
2022/06/20 01:46:33;;;;;;;1.27;1.10;;;;;;;17.10;56.42;101022.03;4953398;28;97642;-93
2022/06/20 01:49:03;;;;;;;3.27;1.13;;;;;;;17.08;56.55;101046.09;4951094;28;96577;-93
2022/06/20 01:51:46;;;;;;;1.47;1.00;;;;;;;17.12;57.18;101027.81;4951878;28;101182;-92
2022/06/20 01:54:15;;;;;;;2.70;0.90;;;;;;;17.10;56.49;101027.59;4952147;28;99359;-92
2022/06/20 01:56:42;;;;;;;1.10;0.93;;;;;;;17.08;56.52;101023.84;4952618;28;99000;-93
2022/06/20 01:59:16;;;;;;;2.10;1.00;;;;;;;17.00;56.89;101018.13;4956438;28;96094;-93
2022/06/20 02:01:41;;;;;;;1.90;1.00;;;;;;;17.00;56.53;101023.69;4954927;28;96364;-92
2022/06/20 02:04:15;;;;;;;1.67;1.07;;;;;;;16.97;57.00;101012.91;4951607;28;98887;-92
2022/06/20 02:06:41;;;;;;;1.10;1.00;;;;;;;16.96;56.58;100995.47;4950285;28;99072;-92
2022/06/20 02:09:09;;;;;;;1.60;1.10;;;;;;;16.91;56.73;101001.84;4952094;28;96681;-93
2022/06/20 02:11:39;;;;;;;1.73;1.00;;;;;;;16.83;56.60;100975.94;4949981;28;96961;-92
2022/06/20 02:14:11;;;;;;;1.40;1.23;;;;;;;16.73;56.93;100979.66;4950040;28;98951;-92
2022/06/20 02:16:40;;;;;;;0.93;0.80;;;;;;;16.74;56.83;100989.47;4949516;28;98957;-90
2022/06/20 02:19:08;;;;;;;0.90;0.90;;;;;;;16.70;56.87;100983.47;4951722;28;97039;-91
2022/06/20 02:21:36;;;;;;;2.40;1.30;;;;;;;16.67;56.81;101001.19;4951545;28;96910;-91
2022/06/20 02:24:10;;;;;;;2.43;1.00;;;;;;;16.60;57.37;101001.81;4951660;28;100491;-92
2022/06/20 02:26:38;;;;;;;0.97;0.97;;;;;;;16.61;56.99;101028.28;4951963;28;100207;-92
2022/06/20 02:29:23;;;;;;;1.57;0.90;;;;;;;16.61;57.59;101048.50;4952033;28;96876;-92
2022/06/20 02:31:55;;;;;;;1.20;1.10;;;;;;;16.64;57.19;101030.03;4953654;28;103360;-92
2022/06/20 02:34:22;;;;;;;2.00;1.10;;;;;;;16.62;56.99;101021.47;4955843;28;96858;-93
2022/06/20 02:36:49;;;;;;;2.00;1.30;;;;;;;16.60;56.94;101013.66;4952714;28;99025;-92
2022/06/20 02:39:15;;;;;;;1.10;1.00;;;;;;;16.62;57.06;101004.81;4950773;28;99718;-92
2022/06/20 02:41:42;;;;;;;2.90;1.07;;;;;;;16.56;56.93;100985.41;4953068;28;96908;-92
2022/06/20 02:44:14;;;;;;;1.57;1.47;;;;;;;16.52;57.13;100975.88;4952245;28;99439;-92
2022/06/20 02:46:41;;;;;;;1.23;1.07;;;;;;;16.51;57.38;101005.72;4934202;28;101745;-91
2022/06/20 02:49:09;;;;;;;2.60;1.40;;;;;;;16.47;57.07;100971.88;4931718;28;97738;-91
2022/06/20 02:51:41;;;;;;;2.13;1.10;;;;;;;16.40;57.50;100978.78;4933190;28;96684;-91
2022/06/20 02:54:11;;;;;;;2.00;1.23;;;;;;;16.41;57.39;101008.06;4964876;28;99659;-91
2022/06/20 02:56:47;;;;;;;2.30;1.60;;;;;;;16.41;57.35;100996.19;4964607;28;100339;-92
2022/06/20 02:59:18;;;;;;;1.93;1.10;;;;;;;16.43;57.28;101029.75;4932742;28;96684;-92
2022/06/20 03:01:57;;;;;;;2.33;1.23;;;;;;;16.48;57.62;101024.13;4932137;28;101583;-91
2022/06/20 03:04:23;;;;;;;1.43;1.00;;;;;;;16.49;57.31;101058.97;4928426;28;104370;-92
2022/06/20 03:06:55;;;;;;;5.90;1.20;;;;;;;16.51;57.46;101030.72;4931412;28;99275;-91
2022/06/20 03:09:27;;;;;;;2.10;1.50;;;;;;;16.56;57.62;101045.78;4964603;28;96929;-92
2022/06/20 03:11:52;;;;;;;2.20;1.40;;;;;;;16.54;57.38;101056.66;4930542;28;96783;-91
2022/06/20 03:14:21;;;;;;;2.60;1.20;;;;;;;16.59;57.38;101061.41;4930506;28;99260;-91
2022/06/20 03:16:47;;;;;;;2.13;1.23;;;;;;;16.55;57.26;101067.25;4962316;28;99054;-91
2022/06/20 03:19:34;;;;;;;1.60;1.50;;;;;;;16.59;58.21;101044.72;4931530;28;96974;-92
2022/06/20 03:22:04;;;;;;;3.43;1.23;;;;;;;16.58;57.43;101065.47;4931054;28;97200;-91
2022/06/20 03:24:30;;;;;;;3.87;1.40;;;;;;;16.65;57.32;101053.75;4931877;28;100582;-91
2022/06/20 03:26:56;;;;;;;1.30;1.30;;;;;;;16.66;57.38;101069.91;4963906;28;99959;-91
2022/06/20 03:29:25;;;;;;;2.13;1.57;;;;;;;16.69;57.43;101073.63;4931755;28;97096;-91
2022/06/20 03:31:51;;;;;;;1.27;1.03;;;;;;;16.71;57.40;101079.44;4932390;28;96842;-91
2022/06/20 03:34:17;;;;;;;1.53;1.40;;;;;;;16.74;57.38;101062.47;4930989;28;99228;-92
2022/06/20 03:36:47;;;;;;;1.50;1.10;;;;;;;16.74;57.49;101056.16;4931941;28;99047;-92
2022/06/20 03:39:13;;;;;;;1.70;1.07;;;;;;;16.74;57.55;101068.03;4963168;28;96585;-92
2022/06/20 03:41:39;;;;;;;2.07;1.23;;;;;;;16.73;57.47;101074.84;4963580;28;97267;-92
2022/06/20 03:44:23;;;;;;;3.07;1.57;;;;;;;16.77;58.03;101085.69;4932498;28;99561;-91
2022/06/20 03:47:02;;;;;;;1.27;1.17;;;;;;;16.74;57.81;101100.63;4962767;28;103784;-91
2022/06/20 03:49:39;;;;;;;1.87;1.17;;;;;;;16.77;57.97;101102.34;4931063;28;96973;-91
2022/06/20 03:52:14;;;;;;;1.93;1.00;;;;;;;16.78;57.94;101112.19;4963749;28;97297;-91
2022/06/20 03:54:46;;;;;;;2.93;1.27;;;;;;;16.77;57.65;101110.69;4947197;28;102233;-91
2022/06/20 03:57:19;;;;;;;3.90;1.50;;;;;;;16.75;57.90;101136.22;4952214;28;101150;-92
2022/06/20 03:59:52;;;;;;;1.67;1.30;;;;;;;16.74;57.83;101131.19;4947342;28;96507;-91
2022/06/20 04:02:36;;;;;;;1.27;1.13;;;;;;;16.77;58.07;101108.66;4953236;28;97858;-92
2022/06/20 04:05:24;;;;;;;2.17;1.20;;;;;;;16.78;57.80;101107.38;4950418;28;103899;-92
2022/06/20 04:08:01;;;;;;;2.47;1.33;;;;;;;16.74;57.68;101103.38;4950006;28;100932;-92
2022/06/20 04:13:58;;;;;;;1.23;1.07;;;;;;;16.77;58.39;101097.56;4952405;28;97096;-92
2022/06/20 04:16:31;;;;;;;3.10;1.43;;;;;;;16.75;57.90;101102.13;4948541;28;103673;-91
2022/06/20 04:19:09;;;;;;;2.83;1.20;;;;;;;16.77;58.24;101080.13;4950100;28;99190;-92
2022/06/20 04:21:37;;;;;;;1.80;1.40;;;;;;;16.76;57.82;101076.59;4951845;28;103039;-92
2022/06/20 04:24:15;;;;;;;2.87;1.30;;;;;;;16.78;58.37;101095.50;4950649;28;96913;-92
2022/06/20 04:27:01;;;;;;;3.60;1.50;;;;;;;16.77;58.68;101094.03;4949890;28;103344;-92
2022/06/20 04:29:30;;;;;;;2.13;1.30;;;;;;;16.78;57.75;101059.38;4947518;28;103231;-92
2022/06/20 04:32:16;;;;;;;2.57;1.30;;;;;;;16.76;58.66;101048.03;4949775;28;97021;-92
2022/06/20 04:34:48;;;;;;;3.07;1.57;;;;;;;16.76;57.81;101053.59;4951330;28;96965;-92
2022/06/20 04:37:35;;;;;;;2.73;1.30;;;;;;;16.75;58.68;101032.66;4950836;28;98747;-92
2022/06/20 04:40:17;;;;;;;2.90;1.23;;;;;;;16.76;58.37;101025.81;4950562;28;102245;-93
2022/06/20 04:42:52;;;;;;;1.27;1.17;;;;;;;16.69;58.14;101009.75;4943438;28;98523;-92
2022/06/20 04:45:22;;;;;;;4.47;1.27;;;;;;;16.78;58.12;101004.56;4952374;28;96727;-91
2022/06/20 04:47:58;;;;;;;4.87;1.13;;;;;;;16.76;58.30;100993.22;4951519;28;103350;-91
2022/06/20 04:50:27;;;;;;;1.83;1.23;;;;;;;16.70;58.04;101003.69;4948326;28;99270;-91
2022/06/20 04:52:59;;;;;;;2.40;1.37;;;;;;;16.66;58.15;100960.78;4955757;28;97273;-91
2022/06/20 04:55:27;;;;;;;1.80;1.33;;;;;;;16.61;58.27;100950.50;4948425;28;96559;-91
2022/06/20 04:57:57;;;;;;;2.53;1.67;;;;;;;16.60;58.46;100952.53;4952161;28;97889;-89
2022/06/20 05:00:34;;;;;;;1.97;1.33;;;;;;;16.58;58.87;100943.97;4929267;28;99084;-91
2022/06/20 05:02:59;;;;;;;2.33;1.80;;;;;;;16.58;58.60;100929.34;4947714;28;97386;-90
2022/06/20 05:05:30;;;;;;;3.63;1.70;;;;;;;16.54;58.68;100924.09;4948677;28;97091;-90
2022/06/20 05:07:56;;;;;;;2.70;1.40;;;;;;;16.56;58.71;100920.78;4948261;28;101300;-90
2022/06/20 05:10:55;;;;;;;3.60;1.63;;;;;;;16.55;58.54;100905.41;4953988;28;100054;-91
2022/06/20 05:13:26;;;;;;;2.80;1.83;;;;;;;16.52;58.54;100898.13;4922982;28;97024;-91
2022/06/20 05:15:53;;;;;;;3.33;1.70;;;;;;;16.53;58.50;100896.84;4925645;28;96801;-91
2022/06/20 05:18:37;;;;;;;1.80;1.70;;;;;;;16.52;58.65;100895.34;4948585;28;98216;-91
2022/06/20 05:21:25;;;;;;;2.40;1.70;;;;;;;16.37;59.80;100877.09;4950138;28;103237;-88
2022/06/20 05:23:54;;;;;;;2.40;1.93;;;;;;;16.40;58.83;100889.91;4947858;28;96973;-91
2022/06/20 05:26:26;;;;;;;2.87;1.70;;;;;;;16.37;58.96;100879.88;4949630;28;97000;-90
2022/06/20 05:28:55;;;;;;;1.80;1.70;;;;;;;16.37;58.88;100890.97;4966039;28;99460;-90
2022/06/20 05:31:30;;;;;;;2.83;1.30;;;;;;;16.41;59.84;100896.97;4950989;28;98859;-86
2022/06/20 05:34:20;;;;;;;3.23;2.03;;;;;;;16.44;60.14;100876.50;4959806;28;96856;-87
2022/06/20 05:37:03;;;;;;;3.13;1.63;;;;;;;16.43;60.20;100882.56;4950892;28;96898;-89
2022/06/20 05:39:38;;;;;;;3.90;1.50;;;;;;;16.51;59.50;100889.06;4941218;28;99127;-89
2022/06/20 05:42:09;;;;;;;2.30;1.17;;;;;;;16.60;59.05;100893.47;4927939;28;99109;-87
2022/06/20 05:44:35;;;;;;;2.90;1.70;;;;;;;16.69;58.93;100893.81;4950661;28;96962;-89
2022/06/20 05:47:25;;;;;;;4.00;1.80;;;;;;;16.81;59.28;100894.38;4951959;28;96791;-88
2022/06/20 05:50:00;;;;;;;3.67;2.00;;;;;;;16.92;59.16;100906.09;4932715;28;102640;-87
2022/06/20 05:52:30;;;;;;;3.40;1.70;;;;;;;16.97;58.62;100904.50;4951843;28;103810;-88
2022/06/20 05:55:30;;;;;;;2.20;1.77;;;;;;;17.02;59.38;100906.41;4950986;28;97151;-88
2022/06/20 05:57:59;;;;;;;2.97;1.50;;;;;;;17.03;58.73;100919.78;4943230;28;96907;-89
2022/06/20 06:00:30;;;;;;;3.97;1.77;;;;;;;17.07;58.70;100911.13;4952242;28;97677;-86
2022/06/20 06:03:12;;;;;;;4.87;1.73;;;;;;;17.13;58.68;100936.81;4939646;28;96887;-87
2022/06/20 06:05:49;;;;;;;1.53;1.37;;;;;;;17.22;58.59;100920.47;4954594;28;96961;-88
2022/06/20 06:08:35;;;;;;;3.33;1.40;;;;;;;17.29;58.56;100930.22;4951264;28;96790;-88
2022/06/20 06:11:23;;;;;;;1.77;1.27;;;;;;;17.36;58.89;100945.53;4942543;28;97278;-87
2022/06/20 06:13:48;;;;;;;5.50;1.20;;;;;;;17.41;58.18;100953.03;4950485;28;103936;-90
2022/06/20 06:16:47;;;;;;;7.60;1.87;;;;;;;17.47;58.09;100957.22;4947290;28;96894;-87
2022/06/20 06:19:30;;;;;;;3.77;1.10;;;;;;;17.53;58.08;100974.59;4954189;28;97169;-88
2022/06/20 06:22:00;;;;;;;2.93;1.17;;;;;;;17.60;57.83;101006.59;4948344;28;101931;-86
2022/06/20 06:24:26;;;;;;;2.10;1.00;;;;;;;17.65;57.82;101000.16;4956034;28;97913;-86
2022/06/20 06:26:57;;;;;;;3.83;1.60;;;;;;;17.73;57.82;101001.03;4951416;28;98558;-86
2022/06/20 06:29:26;;;;;;;1.40;1.03;;;;;;;17.75;57.65;101015.94;4957586;28;96955;-85
2022/06/20 06:31:58;;;;;;;6.20;1.60;;;;;;;17.81;57.98;101011.00;4962581;28;96987;-85
2022/06/20 06:34:54;;;;;;;4.83;1.23;;;;;;;17.86;58.05;101029.66;4940441;28;97541;-86
2022/06/20 06:37:24;;;;;;;2.73;0.90;;;;;;;17.89;57.63;101041.72;4953769;28;97167;-86
2022/06/20 06:40:08;;;;;;;4.33;1.50;;;;;;;17.94;57.65;101030.50;4958606;28;96941;-86
2022/06/20 06:42:34;;;;;;;3.40;1.60;;;;;;;17.98;57.40;101033.72;4953128;28;100268;-85
2022/06/20 06:44:59;;;;;;;5.00;1.93;;;;;;;18.03;57.22;101048.81;4950269;28;97080;-86
2022/06/20 06:47:43;;;;;;;6.80;1.43;;;;;;;18.09;57.18;101043.13;4949265;28;96564;-86
2022/06/20 06:50:25;;;;;;;3.77;1.10;;;;;;;18.16;57.12;101062.00;4950353;28;97603;-86
2022/06/20 06:53:02;;;;;;;3.90;1.30;;;;;;;18.21;57.12;101072.28;4953409;28;100593;-86
2022/06/20 06:55:28;;;;;;;4.50;1.20;;;;;;;18.23;56.98;101083.63;4965648;28;104172;-85
2022/06/20 06:58:04;;;;;;;3.00;1.50;;;;;;;18.24;56.91;101099.06;4950097;28;97548;-87
2022/06/20 07:00:40;;;;;;;5.23;1.50;;;;;;;18.19;56.71;101092.31;4968593;28;96989;-87
2022/06/20 07:03:16;;;;;;;3.80;1.07;;;;;;;18.19;56.87;101116.63;4950207;28;98003;-86
2022/06/20 07:05:48;;;;;;;3.87;1.23;;;;;;;18.20;56.65;101091.03;4957037;28;100412;-86
2022/06/20 07:08:18;;;;;;;1.43;1.00;;;;;;;18.25;56.77;101095.00;4944726;28;97531;-86
2022/06/20 07:10:55;;;;;;;4.57;1.30;;;;;;;18.30;56.51;101074.66;4949975;28;97220;-87
2022/06/20 07:13:35;;;;;;;4.30;1.13;;;;;;;18.35;56.75;101093.28;4948562;28;98676;-84
2022/06/20 07:16:05;;;;;;;5.33;1.50;;;;;;;18.43;56.53;101080.22;4945980;28;99778;-83
2022/06/20 07:18:43;;;;;;;6.80;1.80;;;;;;;18.53;56.56;101067.38;4946314;28;96722;-85
2022/06/20 07:21:18;;;;;;;4.33;1.10;;;;;;;18.64;56.28;101064.34;4947606;28;97048;-86
2022/06/20 07:23:49;;;;;;;4.73;1.07;;;;;;;18.74;56.07;101070.97;4944870;28;104235;-88
2022/06/20 07:26:17;;;;;;;2.87;1.40;;;;;;;18.80;55.97;101068.06;4954512;28;101329;-86
2022/06/20 07:28:48;;;;;;;3.50;1.10;;;;;;;18.81;56.00;101050.81;4956307;28;97076;-87
2022/06/20 07:31:39;;;;;;;3.40;1.13;;;;;;;18.92;55.80;101053.34;4947073;28;98475;-85
2022/06/20 07:34:14;;;;;;;2.03;0.97;;;;;;;19.07;55.89;101044.38;4950679;28;104030;-84
2022/06/20 07:36:47;;;;;;;2.97;1.50;;;;;;;19.14;55.44;101063.25;4946209;28;98586;-85
2022/06/20 07:39:34;;;;;;;3.73;1.73;;;;;;;19.16;55.18;101050.25;4948057;28;97076;-86
2022/06/20 07:42:13;;;;;;;5.53;1.40;;;;;;;19.20;55.22;101038.75;4946495;28;97045;-86
2022/06/20 07:44:46;;;;;;;1.23;1.13;;;;;;;19.24;55.18;101023.19;4950872;28;101015;-86
2022/06/20 07:47:16;;;;;;;4.40;1.60;;;;;;;19.31;55.29;101027.34;4949921;28;98450;-86
2022/06/20 07:49:55;;;;;;;4.70;1.60;;;;;;;19.29;55.14;101021.53;4951189;28;96891;-86
2022/06/20 07:52:25;;;;;;;2.20;1.43;;;;;;;19.27;55.22;101022.09;4964455;28;96910;-88
2022/06/20 07:54:56;;;;;;;4.97;1.73;;;;;;;19.28;55.09;101020.81;4949177;28;97667;-88
2022/06/20 07:57:34;;;;;;;3.13;1.67;;;;;;;19.33;54.95;101019.91;4951391;28;96684;-87
2022/06/20 08:00:23;;;;;;;3.60;1.20;;;;;;;19.39;54.77;101003.84;4949607;28;96999;-88
2022/06/20 08:02:54;;;;;;;4.37;1.10;;;;;;;19.48;54.61;101018.59;4953637;28;96873;-86
2022/06/20 08:05:41;;;;;;;2.50;1.23;;;;;;;19.51;53.89;101037.03;4946448;28;102940;-85
2022/06/20 08:08:07;;;;;;;1.87;0.90;;;;;;;19.53;54.25;101009.34;4952370;28;102077;-88
2022/06/20 08:10:38;;;;;;;3.27;1.17;;;;;;;19.54;54.21;101011.56;4962519;28;97362;-87
2022/06/20 08:13:16;;;;;;;8.03;1.10;;;;;;;19.59;53.43;101035.06;4942722;28;97241;-88
2022/06/20 08:15:50;;;;;;;4.20;1.20;;;;;;;19.55;53.60;101024.22;4927199;28;99178;-88
2022/06/20 08:18:17;;;;;;;2.83;0.80;;;;;;;19.59;53.90;101057.41;4954316;28;96988;-88
2022/06/20 08:20:49;;;;;;;2.37;0.80;;;;;;;19.64;53.53;101040.50;4956786;28;96965;-90
2022/06/20 08:23:21;;;;;;;2.27;0.90;;;;;;;19.66;53.70;101014.84;4953879;28;97227;-88
2022/06/20 08:25:57;;;;;;;1.87;0.70;;;;;;;19.74;52.55;101024.78;4947013;28;97378;-88
2022/06/20 08:28:31;;;;;;;1.27;1.17;;;;;;;19.84;53.07;101028.56;4942343;28;98286;-89
2022/06/20 08:31:17;;;;;;;3.60;1.00;;;;;;;20.04;52.72;101024.22;4940080;28;97561;-85
2022/06/20 08:34:14;;;;;;;3.47;1.27;;;;;;;20.10;51.93;101030.38;4955506;28;97311;-86
2022/06/20 08:37:12;;;;;;;2.30;0.63;;;;;;;20.10;51.94;101035.97;4947143;28;102584;-85
2022/06/20 08:39:46;;;;;;;3.13;0.60;;;;;;;20.02;52.28;101032.41;4930290;28;101542;-86
2022/06/20 08:42:50;;;;;;;2.50;1.00;;;;;;;20.13;51.89;101032.09;4949496;28;97083;-86
2022/06/20 08:45:35;;;;;;;0.90;0.60;;;;;;;20.32;51.46;101031.84;4946766;28;96986;-84
2022/06/20 08:48:25;;;;;;;1.17;0.77;;;;;;;20.39;50.94;101037.47;4916695;28;102165;-82
2022/06/20 08:51:08;;;;;;;1.83;0.77;;;;;;;20.39;51.59;101039.53;4943478;28;100658;-86
2022/06/20 08:53:52;;;;;;;1.30;0.70;;;;;;;20.40;51.61;101050.13;4929992;28;99077;-86
2022/06/20 08:56:36;;;;;;;1.30;0.60;;;;;;;20.41;50.80;101053.69;4947606;28;98713;-87
2022/06/20 08:59:20;;;;;;;1.67;0.83;;;;;;;20.44;50.70;101047.00;4950125;28;98954;-88
2022/06/20 09:02:08;;;;;;;1.97;0.70;;;;;;;20.43;51.18;101048.28;4946781;28;100231;-87
2022/06/20 09:05:07;;;;;;;1.40;0.80;;;;;;;20.53;51.17;101038.84;4941461;28;97155;-86
2022/06/20 09:08:03;;;;;;;2.40;0.90;;;;;;;20.67;50.54;101045.03;4958593;28;98556;-87
2022/06/20 09:10:38;;;;;;;1.97;1.10;;;;;;;20.73;50.69;101046.38;4949484;28;102561;-87
2022/06/20 09:13:37;;;;;;;2.80;0.90;;;;;;;20.76;50.40;101044.53;4945234;28;97883;-87
2022/06/20 09:16:15;;;;;;;1.13;0.63;;;;;;;20.76;50.29;101044.53;4931753;28;96974;-85
2022/06/20 09:18:58;;;;;;;1.30;1.00;;;;;;;20.69;50.59;101051.59;4930088;28;96628;-88
2022/06/20 09:21:45;;;;;;;2.83;1.20;;;;;;;20.59;50.40;101049.88;4961459;28;97737;-88
2022/06/20 09:24:29;;;;;;;1.37;0.93;;;;;;;20.53;49.82;101040.91;4970108;28;103788;-87
2022/06/20 09:27:14;;;;;;;2.57;0.90;;;;;;;20.63;50.48;101044.66;4932206;28;96762;-87
2022/06/20 09:29:55;;;;;;;2.30;0.80;;;;;;;20.98;49.81;101029.09;4942415;28;98545;-88
2022/06/20 09:32:35;;;;;;;1.67;1.20;;;;;;;21.22;49.33;101020.97;4936847;28;96892;-88
2022/06/20 09:35:24;;;;;;;2.40;0.83;;;;;;;21.44;48.10;101019.50;4929927;28;97115;-87
2022/06/20 09:38:11;;;;;;;1.23;0.80;;;;;;;21.56;47.46;101021.38;4951906;28;97179;-87
2022/06/20 09:40:59;;;;;;;1.20;0.67;;;;;;;21.67;47.73;101008.31;4937543;28;97079;-90
2022/06/20 09:43:59;;;;;;;1.10;1.00;;;;;;;21.78;46.30;101017.06;4925424;28;102241;-83
2022/06/20 09:46:33;;;;;;;1.13;0.80;;;;;;;21.86;48.16;101011.47;4935997;28;100269;-88
2022/06/20 09:49:24;;;;;;;0.80;0.60;;;;;;;22.16;47.00;101026.19;4933726;28;96709;-85
2022/06/20 09:51:56;;;;;;;1.50;0.67;;;;;;;22.34;46.70;101024.97;4942133;28;97080;-84
2022/06/20 09:54:54;;;;;;;0.93;0.60;;;;;;;22.37;45.41;101021.06;4939056;28;96974;-86
2022/06/20 09:57:39;;;;;;;2.40;0.70;;;;;;;22.32;44.96;101027.59;4943155;28;100220;-88
2022/06/20 10:00:05;;;;;;;1.83;0.80;;;;;;;22.28;46.30;101020.88;4940835;28;97394;-89
2022/06/20 10:02:34;;;;;;;0.70;0.50;;;;;;;22.40;46.42;101036.00;4945207;28;97082;-89
2022/06/20 10:05:10;;;;;;;1.93;0.83;;;;;;;22.54;44.65;101044.94;4921738;28;98991;-86
2022/06/20 10:07:42;;;;;;;2.23;0.60;;;;;;;22.46;44.29;101042.16;4951929;28;102499;-88
2022/06/20 10:10:27;;;;;;;2.07;1.00;;;;;;;22.48;45.31;101033.16;4940547;28;97222;-90
2022/06/20 10:13:02;;;;;;;2.27;0.73;;;;;;;22.54;44.63;101033.72;4940731;28;99067;-89
2022/06/20 10:15:37;;;;;;;1.27;0.97;;;;;;;22.60;43.89;101040.63;4946061;28;98531;-87
2022/06/20 10:18:40;;;;;;;1.30;0.60;;;;;;;22.56;43.56;101045.88;4938605;28;97341;-90
2022/06/20 10:21:24;;;;;;;1.20;0.87;;;;;;;22.53;43.43;101041.38;4940205;28;96960;-90
2022/06/20 10:24:08;;;;;;;1.70;0.80;;;;;;;22.55;43.94;101052.03;4952421;28;96891;-88
2022/06/20 10:26:42;;;;;;;1.63;1.00;;;;;;;22.52;44.90;101050.38;4935386;28;101722;-90
2022/06/20 10:29:48;;;;;;;1.63;0.77;;;;;;;22.54;42.98;101047.75;4939391;28;96739;-89
2022/06/20 10:32:20;;;;;;;0.93;0.60;;;;;;;22.64;43.45;101048.66;4940042;28;96833;-88
2022/06/20 10:35:01;;;;;;;2.53;0.70;;;;;;;22.86;43.34;101047.81;4947286;28;97098;-89
2022/06/20 10:37:34;;;;;;;1.23;0.77;;;;;;;23.03;43.59;101042.28;4950984;28;100180;-87
2022/06/20 10:40:29;;;;;;;2.10;1.00;;;;;;;23.01;42.73;101042.84;4947266;28;97161;-87
2022/06/20 10:43:10;;;;;;;0.70;0.60;;;;;;;23.32;41.75;101034.97;4953518;28;97208;-89
2022/06/20 10:45:46;;;;;;;2.83;0.70;;;;;;;23.46;42.85;101041.81;4952266;28;97358;-90
2022/06/20 10:48:15;;;;;;;0.73;0.60;;;;;;;23.50;42.57;101049.84;4943780;28;101099;-89
2022/06/20 10:50:50;;;;;;;1.93;0.77;;;;;;;23.43;41.90;101048.59;4953067;28;99387;-89
2022/06/20 10:53:18;;;;;;;2.30;0.90;;;;;;;23.38;42.55;101063.59;4947409;28;97319;-89
2022/06/20 10:56:02;;;;;;;1.57;0.67;;;;;;;23.51;41.34;101040.84;4950155;28;97086;-89
2022/06/20 10:58:49;;;;;;;1.40;0.70;;;;;;;23.70;41.70;101057.91;4957305;28;103172;-89
2022/06/20 11:01:38;;;;;;;1.40;0.83;;;;;;;23.66;41.30;101051.97;4936684;28;97387;-88
2022/06/20 11:04:09;;;;;;;0.70;0.60;;;;;;;23.65;41.18;101061.72;4930275;28;97946;-87
2022/06/20 11:06:52;;;;;;;1.90;0.80;;;;;;;23.59;40.27;101064.00;4950396;28;97090;-87
2022/06/20 11:09:46;;;;;;;0.80;0.67;;;;;;;23.42;39.42;101066.00;4964180;28;100545;-87
2022/06/20 11:12:22;;;;;;;1.27;0.90;;;;;;;23.21;41.50;101063.50;4962553;28;100801;-88
2022/06/20 11:15:02;;;;;;;1.27;0.80;;;;;;;23.21;41.35;101076.78;4944993;28;97170;-87
2022/06/20 11:17:52;;;;;;;1.40;0.90;;;;;;;23.41;41.05;101065.28;4954724;28;97269;-88
2022/06/20 11:20:43;;;;;;;2.20;0.70;;;;;;;23.66;40.26;101057.56;4944072;28;102292;-85
2022/06/20 11:23:29;;;;;;;0.97;0.73;;;;;;;23.89;39.30;101071.44;4944266;28;97731;-90
2022/06/20 11:26:17;;;;;;;1.77;0.80;;;;;;;23.87;40.17;101064.91;4944355;28;99154;-86
2022/06/20 11:28:51;;;;;;;2.40;1.10;;;;;;;23.79;40.29;101064.97;4944882;28;97390;-89
2022/06/20 11:31:42;;;;;;;2.70;1.10;;;;;;;23.63;39.70;101069.22;4950631;28;96766;-86
2022/06/20 11:34:52;;;;;;;1.87;1.00;;;;;;;23.42;39.77;101072.38;4957570;28;104382;-83
2022/06/20 11:37:50;;;;;;;1.40;1.00;;;;;;;23.30;39.83;101065.69;4937352;28;97176;-89
2022/06/20 11:40:18;;;;;;;1.07;0.70;;;;;;;23.17;40.93;101071.59;4951247;28;100092;-86
2022/06/20 11:43:28;;;;;;;2.70;1.20;;;;;;;23.19;40.79;101066.13;4925991;28;98878;-89
2022/06/20 11:46:02;;;;;;;1.40;0.90;;;;;;;23.34;40.85;101052.03;4942345;28;101835;-86
2022/06/20 11:48:37;;;;;;;2.03;0.90;;;;;;;23.53;40.48;101055.06;4945061;28;97476;-89
2022/06/20 11:51:27;;;;;;;4.53;1.30;;;;;;;23.83;39.86;101054.03;4947975;28;96907;-87
2022/06/20 11:54:26;;;;;;;2.00;1.20;;;;;;;24.09;39.20;101052.72;4946825;28;102473;-84
2022/06/20 11:57:03;;;;;;;1.00;0.90;;;;;;;24.36;39.26;101053.53;4951941;28;102654;-89
2022/06/20 11:59:58;;;;;;;2.03;1.10;;;;;;;24.57;39.44;101054.59;4947503;28;97233;-88
2022/06/20 12:02:35;;;;;;;0.90;0.87;;;;;;;24.89;39.91;101047.28;4958622;28;97072;-85
2022/06/20 12:05:06;;;;;;;1.57;0.70;;;;;;;25.08;38.30;101050.22;4942408;28;100423;-88
2022/06/20 12:07:47;;;;;;;1.50;1.17;;;;;;;25.20;38.08;101054.75;4943031;28;96828;-85
2022/06/20 12:10:29;;;;;;;1.70;1.13;;;;;;;25.34;37.42;101051.53;4952780;28;97619;-87
2022/06/20 12:13:01;;;;;;;1.40;1.00;;;;;;;25.26;38.70;101055.19;4938552;28;96896;-88
2022/06/20 12:15:35;;;;;;;1.53;1.13;;;;;;;25.19;38.84;101058.88;4955649;28;102262;-85